Am Tubarao — A8ZA9 — position and weather

sailwx.info

Track history (hours):
 
Tides and Currents Weather Stations Pressure Air Temp Water Temp Dewpoint Dewpoint Depression Visibility Wind Speed Wind Dir Waves Ship Positions

Am Tubarao

Last reported at 2016-May-03 19:31 UTC. Time now 2016-May-03 20:13 UTC.
Position N 51°03' E 001°48'.

Length 230 m; draft 14.5 m.

Type: Cargo ship. MMSI: 636015171.

Date/timePositionNaut miles runAvg speedWind from/ knotsBaromVisibWave heightAir tempDewpointWater temp
2016-May-03 19:31N 51°03' E 001°48'0 0.3
2016-May-03 18:28N 51°03' E 001°47'0 0.0
2016-May-03 17:25N 51°03' E 001°47'0 0.0
2016-May-03 16:31N 51°03' E 001°47'0 0.0
2016-May-03 15:31N 51°03' E 001°47'3 2.6
2016-May-03 14:33N 51°03' E 001°43'8 8.0
2016-May-03 13:33N 50°58' E 001°33'8 7.5
2016-May-03 12:33N 50°52' E 001°27'11 9.3
2016-May-03 11:25N 50°42' E 001°22'41 9.5
2016-May-03 07:06N 50°24' E 000°24'610.6
2016-May-03 06:32N 50°22' E 000°15'1111.1
2016-May-03 05:33N 50°20' W 000°01'1211.5
2016-May-03 04:33N 50°17' W 000°19'112 9.3
2016-May-02 16:27N 49°48' W 003°08'1010.7
2016-May-02 15:33N 49°46' W 003°22'1110.3
2016-May-02 14:32N 49°45' W 003°38'6110.2
2016-May-02 08:33N 49°37' W 005°12'10 9.4
2016-May-02 07:32N 49°37' W 005°27'1010.1
2016-May-02 06:33N 49°37' W 005°42'2110.2
2016-May-02 04:32N 49°38' W 006°14'3210.6
2016-May-02 01:33N 49°40' W 007°03'1111.0
2016-May-02 00:33N 49°41' W 007°20'1111.1
2016-May-01 23:33N 49°41' W 007°37'  
Track history (hours):
 
Tides and Currents Weather Stations Pressure Air Temp Water Temp Dewpoint Dewpoint Depression Visibility Wind Speed Wind Dir Waves Ship Positions

Am Tubarao

Last reported at 2016-May-03 19:31 UTC. Time now 2016-May-03 20:13 UTC.
Position N 51°03' E 001°48'.

Length 230 m; draft 14.5 m.

Type: Cargo ship. MMSI: 636015171.

Date/timePositionNaut miles runAvg speedWind from/ knotsBaromVisibWave heightAir tempDewpointWater temp
2016-May-03 19:31N 51°03' E 001°48'0 0.3
2016-May-03 18:28N 51°03' E 001°47'0 0.0
2016-May-03 17:25N 51°03' E 001°47'0 0.0
2016-May-03 16:31N 51°03' E 001°47'0 0.0
2016-May-03 15:31N 51°03' E 001°47'3 2.6
2016-May-03 14:33N 51°03' E 001°43'8 8.0
2016-May-03 13:33N 50°58' E 001°33'8 7.5
2016-May-03 12:33N 50°52' E 001°27'11 9.3
2016-May-03 11:25N 50°42' E 001°22'41 9.5
2016-May-03 07:06N 50°24' E 000°24'610.6
2016-May-03 06:32N 50°22' E 000°15'1111.1
2016-May-03 05:33N 50°20' W 000°01'1211.5
2016-May-03 04:33N 50°17' W 000°19'112 9.3
2016-May-02 16:27N 49°48' W 003°08'1010.7
2016-May-02 15:33N 49°46' W 003°22'1110.3
2016-May-02 14:32N 49°45' W 003°38'6110.2
2016-May-02 08:33N 49°37' W 005°12'10 9.4
2016-May-02 07:32N 49°37' W 005°27'1010.1
2016-May-02 06:33N 49°37' W 005°42'2110.2
2016-May-02 04:32N 49°38' W 006°14'3210.6
2016-May-02 01:33N 49°40' W 007°03'1111.0
2016-May-02 00:33N 49°41' W 007°20'1111.1
2016-May-01 23:33N 49°41' W 007°37'  

Dump ship's entire track history